Time;durP1;ratioP1;P1;durP2;ratioP2;P2;SDS_P1;SDS_P2;PMS_P1;PMS_P2;Temp;Humidity;BMP_temperature;BMP_pressure;BME280_temperature;BME280_humidity;BME280_pressure;Samples;Min_cycle;Max_cycle;Signal;HPM_P1;HPM_P2
2021/07/01 00:00:47;;;;;;;0.57;0.20;;;14.00;99.90;;;;;;6141775;29;20592;-80
2021/07/01 00:03:49;;;;;;;0.30;0.20;;;14.00;99.90;;;;;;6152448;28;20682;-81
2021/07/01 00:06:52;;;;;;;0.60;0.20;;;14.10;99.90;;;;;;6152925;28;20259;-81
2021/07/01 00:09:54;;;;;;;0.20;0.20;;;14.20;99.90;;;;;;6135276;29;20602;-81
2021/07/01 00:12:57;;;;;;;0.20;0.20;;;14.10;99.90;;;;;;6151276;28;20223;-80
2021/07/01 00:15:59;;;;;;;0.20;0.17;;;14.10;99.90;;;;;;6135493;29;20203;-80
2021/07/01 00:19:03;;;;;;;0.10;0.10;;;14.00;99.90;;;;;;6152179;28;20330;-79
2021/07/01 00:22:05;;;;;;;0.83;0.40;;;14.00;99.90;;;;;;6151215;28;20661;-80
2021/07/01 00:25:10;;;;;;;1.03;0.20;;;13.90;99.90;;;;;;6150606;29;20330;-80
2021/07/01 00:28:13;;;;;;;1.47;0.40;;;13.90;99.90;;;;;;6150925;28;20210;-80
2021/07/01 00:31:15;;;;;;;0.10;0.10;;;13.90;99.90;;;;;;6152113;28;20183;-80
2021/07/01 00:34:17;;;;;;;1.27;0.20;;;13.90;99.90;;;;;;6150737;28;20222;-80
2021/07/01 00:37:20;;;;;;;1.40;0.20;;;14.10;99.90;;;;;;6150527;29;20641;-81
2021/07/01 00:40:22;;;;;;;0.50;0.30;;;14.20;99.90;;;;;;6151519;28;20598;-80
2021/07/01 00:43:24;;;;;;;0.20;0.20;;;14.30;99.90;;;;;;6134827;29;20202;-80
2021/07/01 00:46:26;;;;;;;1.07;0.20;;;14.30;99.90;;;;;;6151651;28;20672;-79
2021/07/01 00:49:29;;;;;;;0.10;0.10;;;14.40;99.90;;;;;;6152009;28;20199;-80
2021/07/01 00:52:31;;;;;;;0.20;0.20;;;14.50;99.90;;;;;;6150720;28;20225;-81
2021/07/01 00:55:33;;;;;;;0.30;0.20;;;14.70;99.90;;;;;;6134017;29;20199;-81
2021/07/01 00:58:37;;;;;;;0.33;0.20;;;14.70;99.90;;;;;;6134955;29;20206;-81
2021/07/01 01:01:40;;;;;;;0.50;0.13;;;14.80;99.90;;;;;;6150165;29;20606;-81
2021/07/01 01:04:42;;;;;;;0.20;0.20;;;14.80;99.90;;;;;;6150147;28;20198;-80
2021/07/01 01:07:46;;;;;;;1.33;0.20;;;14.70;99.90;;;;;;6150289;29;20322;-80
2021/07/01 01:10:48;;;;;;;0.23;0.20;;;14.70;99.90;;;;;;6149587;28;20674;-80
2021/07/01 01:14:14;;;;;;;0.30;0.20;;;14.80;99.90;;;;;;6149803;28;20237;-81
2021/07/01 01:17:28;;;;;;;0.27;0.20;;;14.80;99.90;;;;;;6149477;28;20278;-81
2021/07/01 01:20:30;;;;;;;0.90;0.33;;;14.70;99.90;;;;;;6150091;29;20178;-80
2021/07/01 01:23:34;;;;;;;1.37;0.40;;;14.70;99.90;;;;;;6149299;28;20689;-81
2021/07/01 01:26:36;;;;;;;1.30;0.40;;;14.70;99.90;;;;;;6151010;28;20202;-81
2021/07/01 01:29:39;;;;;;;1.90;0.30;;;14.60;99.90;;;;;;6127521;28;20211;-81
2021/07/01 01:32:41;;;;;;;0.60;0.20;;;14.50;99.90;;;;;;6109706;29;20222;-80
2021/07/01 01:35:44;;;;;;;1.53;0.43;;;14.50;99.90;;;;;;6125355;29;20250;-80
2021/07/01 01:38:46;;;;;;;0.20;0.20;;;14.50;99.90;;;;;;6126417;29;20191;-80
2021/07/01 01:42:04;;;;;;;0.20;0.20;;;14.40;99.90;;;;;;6125140;29;20188;-81
2021/07/01 01:45:10;;;;;;;0.40;0.20;;;14.30;99.90;;;;;;6110126;29;20196;-81
2021/07/01 01:48:13;;;;;;;1.90;0.20;;;14.40;99.90;;;;;;6126610;29;20194;-81
2021/07/01 01:51:16;;;;;;;0.20;0.20;;;14.40;99.90;;;;;;6110060;29;20689;-80
2021/07/01 01:54:18;;;;;;;2.93;0.33;;;14.40;99.90;;;;;;6124681;29;20290;-80
2021/07/01 01:57:27;;;;;;;1.70;0.40;;;14.40;99.90;;;;;;6125658;29;20206;-80
2021/07/01 02:00:48;;;;;;;1.23;0.30;;;14.50;99.90;;;;;;6139122;29;20251;-80
2021/07/01 02:03:50;;;;;;;0.93;0.30;;;14.50;99.90;;;;;;6133124;29;20273;-81
2021/07/01 02:07:19;;;;;;;1.73;0.33;;;14.50;99.90;;;;;;6147998;29;20207;-81
2021/07/01 02:10:37;;;;;;;2.63;0.40;;;14.50;99.90;;;;;;6135141;29;20297;-81
2021/07/01 02:13:41;;;;;;;0.90;0.30;;;14.40;99.90;;;;;;6148656;28;20245;-81
2021/07/01 02:17:13;;;;;;;0.87;0.40;;;14.40;99.90;;;;;;6148884;28;20203;-80
2021/07/01 02:20:19;;;;;;;0.10;0.10;;;14.50;99.90;;;;;;6148721;28;20277;-80
2021/07/01 02:23:21;;;;;;;0.20;0.20;;;14.60;99.90;;;;;;6148495;29;20193;-80
2021/07/01 02:26:24;;;;;;;0.23;0.23;;;14.60;99.90;;;;;;6148988;28;20205;-81
2021/07/01 02:29:28;;;;;;;2.13;0.30;;;14.70;99.90;;;;;;6148502;28;20210;-80
2021/07/01 02:32:49;;;;;;;0.20;0.20;;;14.80;99.90;;;;;;6148862;29;20234;-81
2021/07/01 02:36:06;;;;;;;0.93;0.30;;;14.80;99.90;;;;;;6148202;28;20337;-81
2021/07/01 02:39:27;;;;;;;1.90;0.30;;;14.80;99.90;;;;;;6148632;29;20199;-81
2021/07/01 02:42:30;;;;;;;0.20;0.20;;;14.90;99.90;;;;;;6148356;29;20206;-81
2021/07/01 02:45:32;;;;;;;1.33;0.30;;;14.90;99.90;;;;;;6147619;28;20195;-81
2021/07/01 02:48:55;;;;;;;0.20;0.20;;;14.90;99.90;;;;;;6148441;29;20199;-81
2021/07/01 02:51:58;;;;;;;1.30;0.50;;;14.90;99.90;;;;;;6147793;28;20215;-81
2021/07/01 02:55:00;;;;;;;2.33;0.20;;;14.90;99.90;;;;;;6136304;29;20230;-81
2021/07/01 02:58:04;;;;;;;0.30;0.20;;;14.90;99.90;;;;;;6145354;28;20211;-81
2021/07/01 03:01:15;;;;;;;0.77;0.20;;;14.90;99.90;;;;;;6128796;29;20195;-82
2021/07/01 03:04:18;;;;;;;0.30;0.20;;;14.90;99.90;;;;;;6129156;29;20198;-81
2021/07/01 03:07:21;;;;;;;1.23;0.20;;;14.90;99.90;;;;;;6128473;29;20675;-81
2021/07/01 03:10:24;;;;;;;0.20;0.20;;;15.00;99.90;;;;;;6129051;29;20206;-81
2021/07/01 03:13:32;;;;;;;1.40;0.20;;;15.00;99.90;;;;;;6129058;29;20202;-81
2021/07/01 03:16:43;;;;;;;0.30;0.30;;;15.00;99.90;;;;;;6128640;29;20171;-82
2021/07/01 03:19:45;;;;;;;0.30;0.23;;;15.00;99.90;;;;;;6152993;29;20198;-81
2021/07/01 03:23:16;;;;;;;0.50;0.20;;;14.90;99.90;;;;;;6152031;29;20558;-81
2021/07/01 03:26:20;;;;;;;1.13;0.20;;;14.90;99.90;;;;;;6152541;29;20191;-82
2021/07/01 03:29:22;;;;;;;1.90;0.27;;;14.90;99.90;;;;;;6132242;29;20207;-81
2021/07/01 03:32:24;;;;;;;0.30;0.30;;;14.90;99.90;;;;;;6128209;29;20705;-81
2021/07/01 03:35:27;;;;;;;0.53;0.30;;;14.90;99.90;;;;;;6127478;29;20235;-81
2021/07/01 03:38:48;;;;;;;1.53;0.20;;;14.90;99.90;;;;;;6127923;29;20180;-81
2021/07/01 03:41:58;;;;;;;0.20;0.20;;;14.90;99.90;;;;;;6127901;29;20199;-82
2021/07/01 03:45:06;;;;;;;0.97;0.30;;;14.90;99.90;;;;;;6127703;29;20184;-81
2021/07/01 03:48:09;;;;;;;1.30;0.30;;;14.90;99.90;;;;;;6127737;29;20204;-81
2021/07/01 03:51:21;;;;;;;0.90;0.20;;;14.90;99.90;;;;;;6127076;29;20203;-81
2021/07/01 03:54:33;;;;;;;0.40;0.30;;;14.90;99.90;;;;;;6127505;29;20226;-81
2021/07/01 03:57:45;;;;;;;0.20;0.20;;;14.80;99.90;;;;;;6127907;29;20195;-81
2021/07/01 04:00:47;;;;;;;0.57;0.47;;;14.70;99.90;;;;;;6125298;29;20195;-81
2021/07/01 04:03:50;;;;;;;0.20;0.20;;;14.60;99.90;;;;;;6150533;28;20249;-80
2021/07/01 04:06:52;;;;;;;0.73;0.20;;;14.60;99.90;;;;;;6150670;28;20615;-81
2021/07/01 04:09:55;;;;;;;1.60;0.20;;;14.60;99.90;;;;;;6151095;29;20210;-81
2021/07/01 04:13:29;;;;;;;0.60;0.30;;;14.70;99.90;;;;;;6149231;29;20722;-81
2021/07/01 04:16:50;;;;;;;1.03;0.30;;;14.80;99.90;;;;;;6151347;29;20651;-80
2021/07/01 04:20:11;;;;;;;0.30;0.27;;;14.80;99.90;;;;;;6151422;29;20179;-81
2021/07/01 04:23:32;;;;;;;1.40;0.30;;;14.80;99.90;;;;;;6151677;29;20274;-80
2021/07/01 04:26:57;;;;;;;0.40;0.20;;;14.90;99.90;;;;;;6150825;29;20209;-80
2021/07/01 04:30:06;;;;;;;0.30;0.30;;;15.00;99.90;;;;;;6150208;28;20202;-81
2021/07/01 04:33:28;;;;;;;1.43;0.30;;;15.00;99.90;;;;;;6151522;28;20227;-81
2021/07/01 04:36:31;;;;;;;0.20;0.20;;;15.10;99.90;;;;;;6149998;29;20303;-82
2021/07/01 04:39:34;;;;;;;0.60;0.30;;;15.20;99.90;;;;;;6134704;29;20326;-81
2021/07/01 04:42:48;;;;;;;0.20;0.20;;;15.30;99.90;;;;;;6150419;28;20199;-81
2021/07/01 04:45:50;;;;;;;2.00;0.40;;;15.40;99.90;;;;;;6150002;29;20194;-81
2021/07/01 04:48:53;;;;;;;0.83;0.30;;;15.50;99.90;;;;;;6150375;29;20213;-82
2021/07/01 04:51:56;;;;;;;1.23;0.20;;;15.60;99.90;;;;;;6151087;28;20675;-81
2021/07/01 04:55:17;;;;;;;0.43;0.30;;;15.60;99.90;;;;;;6150340;29;20204;-80
2021/07/01 04:58:38;;;;;;;0.20;0.20;;;15.60;99.90;;;;;;6136880;29;20231;-81
2021/07/01 05:01:59;;;;;;;0.77;0.23;;;15.60;99.90;;;;;;6127283;29;20184;-82
2021/07/01 05:05:21;;;;;;;0.87;0.33;;;15.60;99.90;;;;;;6125488;29;20239;-81
2021/07/01 05:08:29;;;;;;;2.53;0.30;;;15.60;99.90;;;;;;6127479;29;20588;-81
2021/07/01 05:11:32;;;;;;;3.67;0.50;;;15.60;99.90;;;;;;6126212;29;20339;-82
2021/07/01 05:14:34;;;;;;;0.30;0.30;;;15.60;99.90;;;;;;6125197;29;20233;-81
2021/07/01 05:17:37;;;;;;;0.20;0.20;;;15.70;99.90;;;;;;6114987;29;20194;-81
2021/07/01 05:20:43;;;;;;;0.30;0.23;;;15.70;99.90;;;;;;6150691;28;20199;-80
2021/07/01 05:24:04;;;;;;;0.20;0.20;;;15.80;99.90;;;;;;6149940;29;20180;-81
2021/07/01 05:27:30;;;;;;;0.20;0.20;;;15.90;99.90;;;;;;6148927;28;20207;-80
2021/07/01 05:30:55;;;;;;;0.20;0.20;;;16.00;99.90;;;;;;6148909;29;20257;-81
2021/07/01 05:34:16;;;;;;;0.47;0.20;;;16.10;99.90;;;;;;6150275;29;20215;-82
2021/07/01 05:37:20;;;;;;;0.20;0.20;;;16.10;99.90;;;;;;6132658;29;20313;-81
2021/07/01 05:40:31;;;;;;;0.20;0.20;;;16.20;99.90;;;;;;6149334;29;20639;-81
2021/07/01 05:43:34;;;;;;;1.03;0.20;;;16.30;99.90;;;;;;6148799;29;20213;-82
2021/07/01 05:46:39;;;;;;;0.40;0.30;;;16.30;99.90;;;;;;6148719;28;20203;-82
2021/07/01 05:49:42;;;;;;;0.30;0.30;;;16.30;99.90;;;;;;6132724;29;20289;-81
2021/07/01 05:52:47;;;;;;;0.20;0.20;;;16.40;99.90;;;;;;6150023;28;20201;-81
2021/07/01 05:55:49;;;;;;;0.97;0.40;;;16.40;99.90;;;;;;6148593;28;20219;-81
2021/07/01 05:58:53;;;;;;;0.23;0.23;;;16.30;99.90;;;;;;6148486;28;20229;-80
2021/07/01 06:01:55;;;;;;;2.00;0.40;;;16.40;99.90;;;;;;6148383;28;20554;-80
2021/07/01 06:04:57;;;;;;;0.50;0.20;;;16.40;99.90;;;;;;6149266;28;20198;-81
2021/07/01 06:08:21;;;;;;;0.47;0.30;;;16.50;99.90;;;;;;6148866;29;20191;-81
2021/07/01 06:11:25;;;;;;;0.53;0.37;;;16.50;99.90;;;;;;6148615;28;20195;-81
2021/07/01 06:14:29;;;;;;;0.20;0.20;;;16.40;99.90;;;;;;6147868;28;20595;-81
2021/07/01 06:17:33;;;;;;;0.30;0.20;;;16.40;99.90;;;;;;6148452;29;20191;-81
2021/07/01 06:20:37;;;;;;;0.50;0.30;;;16.30;99.90;;;;;;6147863;28;20195;-81
2021/07/01 06:23:40;;;;;;;2.57;0.20;;;16.40;99.90;;;;;;6148148;28;20209;-81
2021/07/01 06:26:44;;;;;;;0.20;0.20;;;16.40;99.90;;;;;;6131511;28;20199;-81
2021/07/01 06:29:47;;;;;;;0.20;0.20;;;16.40;99.90;;;;;;6124848;28;20358;-81
2021/07/01 06:32:52;;;;;;;1.10;0.20;;;16.50;99.90;;;;;;6124333;29;20196;-81
2021/07/01 06:35:55;;;;;;;0.20;0.20;;;16.60;99.90;;;;;;6107483;29;20585;-80
2021/07/01 06:39:21;;;;;;;0.30;0.30;;;16.50;99.90;;;;;;6139430;29;20601;-80
2021/07/01 06:42:51;;;;;;;0.30;0.23;;;16.60;99.90;;;;;;6147870;29;20220;-81
2021/07/01 06:46:14;;;;;;;1.37;0.30;;;16.60;99.90;;;;;;6149221;29;20222;-81
2021/07/01 06:49:37;;;;;;;0.30;0.20;;;16.50;99.90;;;;;;6148157;29;20191;-80
2021/07/01 06:52:59;;;;;;;3.57;0.40;;;16.50;99.90;;;;;;6148360;29;20187;-80
2021/07/01 06:56:26;;;;;;;0.37;0.20;;;16.50;99.90;;;;;;6147330;28;20215;-81
2021/07/01 06:59:28;;;;;;;0.30;0.30;;;16.50;99.90;;;;;;6131758;29;20214;-81
2021/07/01 07:02:35;;;;;;;0.50;0.30;;;16.60;99.90;;;;;;6147693;29;20190;-80
2021/07/01 07:05:38;;;;;;;0.30;0.30;;;16.60;99.90;;;;;;6147183;28;20298;-80
2021/07/01 07:08:41;;;;;;;1.77;0.40;;;16.60;99.90;;;;;;6148862;28;20230;-80
2021/07/01 07:11:44;;;;;;;0.23;0.20;;;16.70;99.90;;;;;;6148546;28;20195;-80
2021/07/01 07:14:46;;;;;;;0.47;0.30;;;16.80;99.90;;;;;;6149050;28;20294;-79
2021/07/01 07:17:52;;;;;;;1.90;0.50;;;16.80;99.90;;;;;;6148771;28;20258;-80
2021/07/01 07:21:01;;;;;;;0.20;0.20;;;17.00;99.90;;;;;;6148578;28;20186;-80
2021/07/01 07:24:04;;;;;;;0.87;0.30;;;17.10;99.90;;;;;;6147801;28;20198;-80
2021/07/01 07:27:08;;;;;;;0.20;0.20;;;17.40;99.90;;;;;;6145017;28;20734;-80
2021/07/01 07:30:11;;;;;;;0.30;0.30;;;17.50;99.90;;;;;;6125030;29;20278;-80
2021/07/01 07:33:14;;;;;;;0.50;0.20;;;17.60;99.90;;;;;;6123246;29;20227;-81
2021/07/01 07:36:20;;;;;;;1.23;0.20;;;17.70;99.90;;;;;;6123263;29;20647;-80
2021/07/01 07:39:24;;;;;;;0.50;0.40;;;17.80;99.90;;;;;;6125129;29;20192;-80
2021/07/01 07:42:26;;;;;;;0.23;0.23;;;17.90;99.70;;;;;;6127474;29;20527;-80
2021/07/01 07:45:29;;;;;;;0.30;0.30;;;18.00;99.90;;;;;;6127650;29;20682;-79
2021/07/01 07:48:31;;;;;;;0.17;0.17;;;18.10;99.90;;;;;;6127411;29;20204;-79
2021/07/01 07:51:34;;;;;;;1.50;0.30;;;18.20;99.90;;;;;;6112094;29;20204;-80
2021/07/01 07:54:45;;;;;;;0.20;0.20;;;18.30;99.90;;;;;;6128630;29;20207;-81
2021/07/01 07:57:52;;;;;;;0.50;0.50;;;18.50;99.90;;;;;;6111589;29;20265;-81
2021/07/01 08:00:56;;;;;;;0.97;0.30;;;18.60;99.90;;;;;;6126728;29;20200;-80
2021/07/01 08:04:05;;;;;;;0.77;0.20;;;18.60;99.00;;;;;;6150771;28;20203;-80
2021/07/01 08:07:08;;;;;;;0.17;0.13;;;18.80;99.10;;;;;;6151066;29;20577;-80
2021/07/01 08:10:13;;;;;;;0.43;0.20;;;18.90;99.30;;;;;;6150660;29;20245;-79
2021/07/01 08:13:20;;;;;;;0.20;0.20;;;19.10;99.10;;;;;;6151080;29;20233;-80
2021/07/01 08:16:23;;;;;;;1.37;0.20;;;19.20;98.20;;;;;;6135544;29;20211;-80
2021/07/01 08:19:26;;;;;;;0.33;0.30;;;19.20;97.20;;;;;;6151841;28;20191;-80
2021/07/01 08:22:28;;;;;;;1.13;0.30;;;19.10;96.40;;;;;;6150842;29;20206;-80
2021/07/01 08:25:32;;;;;;;0.30;0.30;;;19.20;96.40;;;;;;6151372;28;20692;-80
2021/07/01 08:28:34;;;;;;;0.20;0.20;;;19.30;96.20;;;;;;6135075;29;20359;-80
2021/07/01 08:31:46;;;;;;;0.20;0.20;;;19.40;94.90;;;;;;6150764;29;20793;-81
2021/07/01 08:34:49;;;;;;;0.30;0.20;;;19.40;95.20;;;;;;6151106;28;20218;-80
2021/07/01 08:37:55;;;;;;;0.47;0.20;;;19.50;95.30;;;;;;6150384;28;20572;-80
2021/07/01 08:41:05;;;;;;;1.43;0.20;;;19.60;94.90;;;;;;6151320;28;20186;-82
2021/07/01 08:44:17;;;;;;;0.73;0.30;;;19.70;94.70;;;;;;6150368;28;20285;-81
2021/07/01 08:47:28;;;;;;;0.20;0.20;;;20.00;95.00;;;;;;6149799;28;20654;-81
2021/07/01 08:50:32;;;;;;;0.50;0.20;;;20.30;93.70;;;;;;6150302;28;20584;-80
2021/07/01 08:53:59;;;;;;;1.30;0.30;;;20.70;93.20;;;;;;6134561;29;20206;-81
2021/07/01 08:57:12;;;;;;;1.67;0.30;;;21.10;93.40;;;;;;6148186;29;20183;-80
2021/07/01 09:00:16;;;;;;;0.57;0.20;;;21.40;91.70;;;;;;6126280;29;20176;-80
2021/07/01 09:03:23;;;;;;;0.20;0.20;;;21.40;92.10;;;;;;6110001;29;20215;-79
2021/07/01 09:06:27;;;;;;;1.33;0.30;;;21.40;90.70;;;;;;6125900;29;20223;-80
2021/07/01 09:09:35;;;;;;;0.30;0.30;;;21.40;90.90;;;;;;6109789;29;20290;-79
2021/07/01 09:12:47;;;;;;;0.83;0.30;;;21.40;90.10;;;;;;6126089;29;20185;-80
2021/07/01 09:15:50;;;;;;;0.30;0.27;;;21.20;90.70;;;;;;6125758;29;20215;-80
2021/07/01 09:18:56;;;;;;;0.20;0.20;;;21.20;91.40;;;;;;6142524;29;20202;-80
2021/07/01 09:22:01;;;;;;;2.00;0.30;;;21.40;92.30;;;;;;6149519;28;20191;-80
2021/07/01 09:25:04;;;;;;;0.30;0.27;;;21.40;91.90;;;;;;6148720;28;20285;-79
2021/07/01 09:28:07;;;;;;;0.20;0.20;;;21.30;90.70;;;;;;6149309;28;20211;-81
2021/07/01 09:31:09;;;;;;;0.30;0.30;;;21.20;91.60;;;;;;6149445;29;20672;-80
2021/07/01 09:34:13;;;;;;;2.73;0.20;;;21.20;90.70;;;;;;6150100;28;20210;-80
2021/07/01 09:37:17;;;;;;;0.30;0.30;;;21.10;88.90;;;;;;6148658;29;20246;-80
2021/07/01 09:40:21;;;;;;;0.20;0.20;;;21.30;89.60;;;;;;6148621;28;20413;-81
2021/07/01 09:43:25;;;;;;;0.30;0.20;;;21.90;86.40;;;;;;6149026;29;20183;-80
2021/07/01 09:46:30;;;;;;;0.20;0.20;;;22.60;84.00;;;;;;6148368;28;20205;-80
2021/07/01 09:49:37;;;;;;;0.37;0.23;;;22.80;80.10;;;;;;6150412;28;20201;-80
2021/07/01 09:52:44;;;;;;;0.30;0.30;;;23.40;82.10;;;;;;6148684;28;20578;-80
2021/07/01 09:55:52;;;;;;;0.20;0.20;;;24.00;78.40;;;;;;6148111;29;20293;-80
2021/07/01 09:59:01;;;;;;;0.20;0.20;;;24.60;78.10;;;;;;6150071;28;20547;-80
2021/07/01 10:02:36;;;;;;;0.37;0.23;;;25.20;76.40;;;;;;6139776;28;20651;-80
2021/07/01 10:05:39;;;;;;;0.67;0.30;;;25.60;73.60;;;;;;6037226;29;20386;-80
2021/07/01 10:08:41;;;;;;;0.40;0.40;;;25.70;68.40;;;;;;6037018;29;20302;-80
2021/07/01 10:11:44;;;;;;;0.20;0.20;;;25.20;67.00;;;;;;6052980;29;20189;-80
2021/07/01 10:14:48;;;;;;;0.77;0.27;;;24.80;67.70;;;;;;6037021;29;20585;-80
2021/07/01 10:18:12;;;;;;;4.43;0.40;;;24.70;69.10;;;;;;6052203;29;20300;-80
2021/07/01 10:21:32;;;;;;;0.47;0.20;;;24.80;68.10;;;;;;6052702;29;20209;-80
2021/07/01 10:24:50;;;;;;;0.20;0.20;;;25.40;68.60;;;;;;6052250;29;20235;-80
2021/07/01 10:27:53;;;;;;;2.67;0.30;;;25.80;63.50;;;;;;6060945;29;20249;-79
2021/07/01 10:31:02;;;;;;;0.20;0.20;;;26.00;62.70;;;;;;6059698;29;20260;-81
2021/07/01 10:34:05;;;;;;;0.30;0.20;;;25.80;59.40;;;;;;6060304;29;20236;-81
2021/07/01 10:37:24;;;;;;;0.17;0.17;;;25.70;64.20;;;;;;6075447;29;20316;-80
2021/07/01 10:40:27;;;;;;;0.35;0.15;;;25.70;60.40;;;;;;6083231;29;20214;-81
2021/07/01 10:43:45;;;;;;;0.40;0.25;;;25.60;61.20;;;;;;6148078;29;20265;-80
2021/07/01 10:46:48;;;;;;;0.22;0.22;;;25.70;66.50;;;;;;6131562;29;20681;-81
2021/07/01 10:49:50;;;;;;;0.30;0.30;;;25.70;62.00;;;;;;6147996;29;20210;-83
2021/07/01 10:52:54;;;;;;;0.65;0.30;;;25.50;60.80;;;;;;6147847;28;20700;-80
2021/07/01 10:56:00;;;;;;;0.57;0.20;;;25.30;64.70;;;;;;6147605;28;20215;-82
2021/07/01 10:59:03;;;;;;;0.35;0.35;;;25.50;62.80;;;;;;6131932;28;20194;-81
2021/07/01 11:02:05;;;;;;;0.20;0.20;;;26.00;60.90;;;;;;6123709;29;20282;-82
2021/07/01 11:05:08;;;;;;;0.45;0.30;;;26.40;59.70;;;;;;6123906;29;20198;-82
2021/07/01 11:08:28;;;;;;;0.47;0.20;;;26.10;59.40;;;;;;6124949;29;20286;-81
2021/07/01 11:11:34;;;;;;;0.30;0.30;;;25.90;59.60;;;;;;6124209;29;20188;-81
2021/07/01 11:14:41;;;;;;;0.35;0.32;;;26.30;59.70;;;;;;6125657;29;20242;-81
2021/07/01 11:17:44;;;;;;;0.20;0.20;;;27.10;59.90;;;;;;6135004;29;20245;-82
2021/07/01 11:21:10;;;;;;;2.17;0.22;;;27.70;59.00;;;;;;6152330;28;20199;-81
2021/07/01 11:24:25;;;;;;;0.30;0.30;;;27.80;57.20;;;;;;6153251;28;20176;-82
2021/07/01 11:27:31;;;;;;;0.20;0.20;;;27.60;54.00;;;;;;6152024;28;20289;-81
2021/07/01 11:30:46;;;;;;;1.45;0.35;;;26.90;54.70;;;;;;6135904;29;20202;-81
2021/07/01 11:33:51;;;;;;;0.25;0.25;;;26.80;56.90;;;;;;6151995;28;20202;-81
2021/07/01 11:36:54;;;;;;;0.38;0.28;;;27.10;55.90;;;;;;6135664;29;20238;-81
2021/07/01 11:40:09;;;;;;;1.08;0.25;;;27.10;56.40;;;;;;6411428;23;20599;-70
2021/07/01 11:43:13;;;;;;;0.47;0.20;;;27.10;55.60;;;;;;6129079;29;20200;-69
2021/07/01 11:46:18;;;;;;;0.88;0.40;;;26.80;55.80;;;;;;6400163;23;20246;-65
2021/07/01 11:49:22;;;;;;;0.43;0.43;;;26.60;56.40;;;;;;6127832;29;20565;-65
2021/07/01 11:52:24;;;;;;;0.25;0.25;;;26.40;56.70;;;;;;6129184;29;20188;-65
2021/07/01 11:55:27;;;;;;;0.35;0.32;;;26.10;55.60;;;;;;6128918;29;20231;-65
2021/07/01 11:58:32;;;;;;;0.47;0.30;;;25.90;55.60;;;;;;6128878;29;20204;-66
2021/07/01 12:01:35;;;;;;;1.27;0.30;;;25.90;56.20;;;;;;6108259;29;20648;-65
2021/07/01 12:04:38;;;;;;;0.20;0.20;;;25.70;55.80;;;;;;6105090;29;20198;-64
2021/07/01 12:07:42;;;;;;;0.22;0.20;;;25.50;55.60;;;;;;6104587;29;20328;-65
2021/07/01 12:10:46;;;;;;;0.30;0.30;;;25.90;55.60;;;;;;6105093;29;20228;-64
2021/07/01 12:13:49;;;;;;;0.20;0.20;;;26.70;54.60;;;;;;6104777;29;20191;-65
2021/07/01 12:16:52;;;;;;;0.40;0.40;;;26.70;54.00;;;;;;6104082;29;20216;-65
2021/07/01 12:19:58;;;;;;;1.35;0.30;;;26.30;54.60;;;;;;6104813;29;20188;-65
2021/07/01 12:23:20;;;;;;;3.13;0.40;;;26.00;56.00;;;;;;6104515;29;20235;-64
2021/07/01 12:26:33;;;;;;;0.30;0.25;;;25.90;57.30;;;;;;6103088;29;20216;-65
2021/07/01 12:29:47;;;;;;;1.13;0.43;;;25.50;56.00;;;;;;6124796;29;20196;-65
2021/07/01 12:32:49;;;;;;;0.20;0.20;;;25.10;56.90;;;;;;6127951;29;20192;-65
2021/07/01 12:36:02;;;;;;;0.22;0.22;;;25.00;57.70;;;;;;6127966;29;20211;-65
2021/07/01 12:39:05;;;;;;;0.13;0.13;;;24.80;57.70;;;;;;6114299;29;20291;-65
2021/07/01 12:42:07;;;;;;;0.20;0.20;;;24.80;59.00;;;;;;6104319;29;20279;-65
2021/07/01 12:45:09;;;;;;;0.40;0.20;;;25.20;58.90;;;;;;6109918;29;20239;-65
2021/07/01 12:48:50;;;;;;;1.77;0.20;;;25.50;55.80;;;;;;6095005;29;20258;-65
2021/07/01 12:52:08;;;;;;;0.20;0.20;;;25.60;55.70;;;;;;6008383;29;20264;-65
2021/07/01 12:55:18;;;;;;;0.43;0.43;;;25.50;55.00;;;;;;6008472;29;20212;-65
2021/07/01 12:58:21;;;;;;;0.20;0.20;;;26.10;56.70;;;;;;6012774;29;20210;-65
2021/07/01 13:01:23;;;;;;;0.30;0.30;;;26.60;55.00;;;;;;6008079;29;20251;-64
2021/07/01 13:04:28;;;;;;;0.20;0.20;;;26.80;55.80;;;;;;6023605;29;20679;-65
2021/07/01 13:07:32;;;;;;;0.75;0.30;;;26.90;53.90;;;;;;6007605;29;20577;-65
2021/07/01 13:10:37;;;;;;;0.75;0.40;;;26.90;55.30;;;;;;6008399;29;20241;-65
2021/07/01 13:13:39;;;;;;;0.20;0.20;;;27.10;54.90;;;;;;6007742;29;20240;-66
2021/07/01 13:16:41;;;;;;;0.30;0.30;;;27.50;55.30;;;;;;6007781;29;20309;-65
2021/07/01 13:19:49;;;;;;;0.40;0.40;;;27.80;53.80;;;;;;6007914;29;20606;-65
2021/07/01 13:22:51;;;;;;;1.45;0.30;;;27.70;53.60;;;;;;6078472;29;20200;-65
2021/07/01 13:25:54;;;;;;;0.30;0.30;;;27.80;52.90;;;;;;6109467;29;20211;-65
2021/07/01 13:28:56;;;;;;;0.43;0.40;;;27.80;53.30;;;;;;6142921;29;20563;-65
2021/07/01 13:32:07;;;;;;;0.50;0.32;;;27.70;53.80;;;;;;6150302;29;20205;-65
2021/07/01 13:35:11;;;;;;;0.30;0.30;;;27.60;54.10;;;;;;6133154;29;20214;-65
2021/07/01 13:38:21;;;;;;;0.30;0.30;;;27.80;54.20;;;;;;6149192;28;20194;-65
2021/07/01 13:41:28;;;;;;;0.68;0.30;;;28.20;53.90;;;;;;6150382;29;20568;-65
2021/07/01 13:44:30;;;;;;;0.50;0.30;;;28.20;52.70;;;;;;6149753;29;20265;-65
2021/07/01 13:47:44;;;;;;;0.30;0.30;;;28.30;52.70;;;;;;6150137;29;20253;-65
2021/07/01 13:50:51;;;;;;;1.85;0.20;;;27.60;51.30;;;;;;6149634;29;20562;-64
2021/07/01 13:53:53;;;;;;;0.30;0.30;;;27.20;53.10;;;;;;6133066;29;20202;-64
2021/07/01 13:57:02;;;;;;;0.47;0.28;;;26.90;53.10;;;;;;6149620;29;20207;-65
2021/07/01 14:00:05;;;;;;;0.90;0.35;;;26.70;53.70;;;;;;6149279;29;20268;-65
2021/07/01 14:03:20;;;;;;;0.30;0.30;;;26.90;54.70;;;;;;6149801;29;20675;-65
2021/07/01 14:06:22;;;;;;;0.28;0.28;;;27.10;53.30;;;;;;6149340;29;20543;-65
2021/07/01 14:09:25;;;;;;;0.22;0.20;;;27.40;53.50;;;;;;6132730;29;20597;-65
2021/07/01 14:12:27;;;;;;;0.30;0.30;;;27.60;52.90;;;;;;6132171;29;20677;-65
2021/07/01 14:15:30;;;;;;;0.80;0.35;;;27.90;53.10;;;;;;6149329;29;20220;-66
2021/07/01 14:18:38;;;;;;;0.38;0.38;;;28.00;52.80;;;;;;6149676;29;20191;-65
2021/07/01 14:21:45;;;;;;;0.47;0.47;;;27.80;52.50;;;;;;6149392;29;20179;-65
2021/07/01 14:24:47;;;;;;;0.30;0.30;;;27.50;52.50;;;;;;6149470;29;20531;-65
2021/07/01 14:28:00;;;;;;;0.52;0.40;;;27.90;53.40;;;;;;6131766;29;20203;-64
2021/07/01 14:31:17;;;;;;;0.22;0.22;;;28.00;53.00;;;;;;6149381;29;20195;-66
2021/07/01 14:34:51;;;;;;;0.30;0.30;;;28.00;52.70;;;;;;6132527;29;20186;-65
2021/07/01 14:38:07;;;;;;;0.93;0.20;;;27.60;52.80;;;;;;6052194;29;20241;-65
2021/07/01 14:41:29;;;;;;;0.40;0.40;;;27.60;53.00;;;;;;6052662;29;20555;-64
2021/07/01 14:44:36;;;;;;;0.30;0.30;;;27.50;53.40;;;;;;6043214;29;20714;-65
2021/07/01 14:47:44;;;;;;;1.25;0.40;;;27.40;54.50;;;;;;6029735;29;20210;-64
2021/07/01 14:50:47;;;;;;;0.93;0.50;;;27.50;53.60;;;;;;6033866;29;20199;-65
2021/07/01 14:53:52;;;;;;;0.22;0.22;;;27.40;52.70;;;;;;6034056;29;20362;-64
2021/07/01 14:56:55;;;;;;;0.30;0.30;;;26.90;52.00;;;;;;6049749;29;20706;-65
2021/07/01 15:00:02;;;;;;;0.45;0.30;;;27.20;52.30;;;;;;6041100;29;21157;-65
2021/07/01 15:03:08;;;;;;;0.38;0.38;;;27.80;52.80;;;;;;6057046;29;20200;-65
2021/07/01 15:06:12;;;;;;;0.35;0.35;;;28.20;51.10;;;;;;6040922;29;20227;-64
2021/07/01 15:09:17;;;;;;;0.30;0.30;;;28.60;51.60;;;;;;6056961;29;20565;-65
2021/07/01 15:12:29;;;;;;;0.30;0.30;;;29.10;51.50;;;;;;6070587;29;20211;-65
2021/07/01 15:15:39;;;;;;;0.30;0.30;;;29.50;49.50;;;;;;6129737;29;20218;-66
2021/07/01 15:18:41;;;;;;;0.63;0.32;;;29.60;48.90;;;;;;6127002;29;20187;-65
2021/07/01 15:21:44;;;;;;;1.15;0.30;;;29.40;49.40;;;;;;6136040;29;20555;-65
2021/07/01 15:24:50;;;;;;;0.30;0.30;;;29.90;49.80;;;;;;6153275;29;20191;-67
2021/07/01 15:27:53;;;;;;;0.40;0.30;;;30.80;48.30;;;;;;6120262;29;20210;-65
2021/07/01 15:30:55;;;;;;;0.30;0.30;;;31.80;47.50;;;;;;6153263;29;20668;-65
2021/07/01 15:33:57;;;;;;;0.30;0.30;;;32.80;45.00;;;;;;6153274;29;20584;-65
2021/07/01 15:37:00;;;;;;;0.30;0.30;;;33.70;44.70;;;;;;6152584;29;20225;-65
2021/07/01 15:40:05;;;;;;;1.67;0.38;;;34.30;42.50;;;;;;6135933;29;20259;-65
2021/07/01 15:43:12;;;;;;;0.52;0.50;;;34.70;41.60;;;;;;6152493;29;20744;-65
2021/07/01 15:46:18;;;;;;;0.47;0.43;;;34.90;41.00;;;;;;6152580;29;20736;-65
2021/07/01 15:49:21;;;;;;;0.40;0.40;;;34.90;40.30;;;;;;6152478;29;20302;-65
2021/07/01 15:52:24;;;;;;;1.30;0.28;;;34.00;40.60;;;;;;6152695;29;20191;-65
2021/07/01 15:55:27;;;;;;;0.55;0.47;;;34.10;41.60;;;;;;6152493;29;20318;-66
2021/07/01 15:58:29;;;;;;;0.85;0.40;;;34.60;41.30;;;;;;6152258;29;20246;-66
2021/07/01 16:01:32;;;;;;;1.15;0.32;;;35.30;40.70;;;;;;6151953;28;20197;-67
2021/07/01 16:04:38;;;;;;;0.77;0.30;;;35.70;39.50;;;;;;6152288;29;20218;-66
2021/07/01 16:07:41;;;;;;;0.43;0.30;;;35.80;39.00;;;;;;6152302;29;20183;-67
2021/07/01 16:10:44;;;;;;;1.10;0.43;;;34.90;40.10;;;;;;6135310;29;20345;-66
2021/07/01 16:13:46;;;;;;;0.40;0.40;;;33.40;40.50;;;;;;6151946;29;20194;-66
2021/07/01 16:16:49;;;;;;;1.00;0.40;;;32.20;42.60;;;;;;6152247;29;20697;-67